sensor_id;sensor_type;location;lat;lon;timestamp;pressure;altitude;pressure_sealevel;temperature;humidity
41712;BME280;27399;51.516;13.670;2022-11-14T00:02:16;101190.53;;;8.97;86.79
41712;BME280;27399;51.516;13.670;2022-11-14T00:04:45;101188.63;;;8.87;87.65
41712;BME280;27399;51.516;13.670;2022-11-14T00:07:11;101179.97;;;9.06;86.52
41712;BME280;27399;51.516;13.670;2022-11-14T00:09:37;101170.19;;;9.04;86.25
41712;BME280;27399;51.516;13.670;2022-11-14T00:12:05;101173.63;;;8.93;87.04
41712;BME280;27399;51.516;13.670;2022-11-14T00:14:30;101176.34;;;8.98;86.83
41712;BME280;27399;51.516;13.670;2022-11-14T00:16:56;101182.50;;;8.95;86.85
41712;BME280;27399;51.516;13.670;2022-11-14T00:19:22;101181.56;;;8.89;86.39
41712;BME280;27399;51.516;13.670;2022-11-14T00:21:47;101170.94;;;8.89;86.13
41712;BME280;27399;51.516;13.670;2022-11-14T00:24:13;101173.63;;;8.93;86.31
41712;BME280;27399;51.516;13.670;2022-11-14T00:26:38;101178.13;;;9.02;85.67
41712;BME280;27399;51.516;13.670;2022-11-14T00:29:04;101172.72;;;8.93;85.83
41712;BME280;27399;51.516;13.670;2022-11-14T00:31:30;101172.91;;;9.08;85.01
41712;BME280;27399;51.516;13.670;2022-11-14T00:33:55;101169.25;;;8.98;85.51
41712;BME280;27399;51.516;13.670;2022-11-14T00:36:21;101169.94;;;8.77;85.36
41712;BME280;27399;51.516;13.670;2022-11-14T00:38:47;101168.91;;;8.66;85.50
41712;BME280;27399;51.516;13.670;2022-11-14T00:41:16;101173.59;;;8.92;84.04
41712;BME280;27399;51.516;13.670;2022-11-14T00:43:41;101170.69;;;8.67;84.05
41712;BME280;27399;51.516;13.670;2022-11-14T00:46:07;101160.03;;;8.64;84.14
41712;BME280;27399;51.516;13.670;2022-11-14T00:48:33;101157.34;;;8.64;83.76
41712;BME280;27399;51.516;13.670;2022-11-14T00:50:58;101148.47;;;8.60;83.35
41712;BME280;27399;51.516;13.670;2022-11-14T00:53:24;101144.78;;;8.52;83.12
41712;BME280;27399;51.516;13.670;2022-11-14T00:55:49;101148.19;;;8.40;83.09
41712;BME280;27399;51.516;13.670;2022-11-14T00:58:15;101146.38;;;8.39;82.77
41712;BME280;27399;51.516;13.670;2022-11-14T01:00:40;101132.81;;;8.14;82.60
41712;BME280;27399;51.516;13.670;2022-11-14T01:03:06;101135.44;;;8.11;82.91
41712;BME280;27399;51.516;13.670;2022-11-14T01:05:32;101127.28;;;7.99;83.30
41712;BME280;27399;51.516;13.670;2022-11-14T01:07:57;101134.34;;;7.97;82.91
41712;BME280;27399;51.516;13.670;2022-11-14T01:10:23;101129.94;;;7.97;83.55
41712;BME280;27399;51.516;13.670;2022-11-14T01:12:49;101135.13;;;7.89;83.25
41712;BME280;27399;51.516;13.670;2022-11-14T01:15:14;101127.06;;;7.82;83.35
41712;BME280;27399;51.516;13.670;2022-11-14T01:17:40;101118.22;;;7.84;84.09
41712;BME280;27399;51.516;13.670;2022-11-14T01:20:06;101124.09;;;7.60;84.10
41712;BME280;27399;51.516;13.670;2022-11-14T01:22:32;101112.03;;;7.82;83.73
41712;BME280;27399;51.516;13.670;2022-11-14T01:24:57;101105.69;;;7.74;83.27
41712;BME280;27399;51.516;13.670;2022-11-14T01:27:24;101103.84;;;7.67;83.42
41712;BME280;27399;51.516;13.670;2022-11-14T01:29:50;101100.19;;;7.58;83.49
41712;BME280;27399;51.516;13.670;2022-11-14T01:32:15;101091.09;;;7.44;83.68
41712;BME280;27399;51.516;13.670;2022-11-14T01:34:41;101089.50;;;7.55;83.56
41712;BME280;27399;51.516;13.670;2022-11-14T01:37:07;101082.41;;;7.53;83.16
41712;BME280;27399;51.516;13.670;2022-11-14T01:39:33;101093.75;;;7.44;83.63
41712;BME280;27399;51.516;13.670;2022-11-14T01:41:59;101079.63;;;7.47;82.71
41712;BME280;27399;51.516;13.670;2022-11-14T01:44:48;101081.41;;;7.46;83.23
41712;BME280;27399;51.516;13.670;2022-11-14T01:47:20;101042.25;;;7.29;82.27
41712;BME280;27399;51.516;13.670;2022-11-14T01:49:50;101068.56;;;7.16;82.81
41712;BME280;27399;51.516;13.670;2022-11-14T01:52:29;101058.00;;;7.20;81.85
41712;BME280;27399;51.516;13.670;2022-11-14T01:54:58;101061.56;;;7.21;81.96
41712;BME280;27399;51.516;13.670;2022-11-14T01:57:28;101060.66;;;7.20;82.18
41712;BME280;27399;51.516;13.670;2022-11-14T01:59:59;101054.41;;;7.13;81.86
41712;BME280;27399;51.516;13.670;2022-11-14T02:02:25;101049.97;;;7.14;82.46
41712;BME280;27399;51.516;13.670;2022-11-14T02:05:05;101043.78;;;7.13;82.44
41712;BME280;27399;51.516;13.670;2022-11-14T02:07:33;101041.16;;;7.15;81.96
41712;BME280;27399;51.516;13.670;2022-11-14T02:10:04;101049.47;;;6.83;83.52
41712;BME280;27399;51.516;13.670;2022-11-14T02:12:30;101050.03;;;7.19;84.27
41712;BME280;27399;51.516;13.670;2022-11-14T02:14:57;101039.06;;;6.95;84.05
41712;BME280;27399;51.516;13.670;2022-11-14T02:17:24;101037.63;;;7.16;83.36
41712;BME280;27399;51.516;13.670;2022-11-14T02:22:41;101020.66;;;7.05;82.42
41712;BME280;27399;51.516;13.670;2022-11-14T02:25:08;101024.91;;;6.93;82.84
41712;BME280;27399;51.516;13.670;2022-11-14T02:27:35;101015.28;;;7.00;82.46
41712;BME280;27399;51.516;13.670;2022-11-14T02:30:08;101006.13;;;6.81;82.31
41712;BME280;27399;51.516;13.670;2022-11-14T02:32:34;101006.66;;;7.15;82.10
41712;BME280;27399;51.516;13.670;2022-11-14T02:34:59;100998.50;;;7.03;82.46
41712;BME280;27399;51.516;13.670;2022-11-14T02:37:25;101005.31;;;6.85;83.59
41712;BME280;27399;51.516;13.670;2022-11-14T02:39:51;101000.09;;;6.90;83.10
41712;BME280;27399;51.516;13.670;2022-11-14T02:42:16;100998.00;;;6.70;83.58
41712;BME280;27399;51.516;13.670;2022-11-14T02:44:42;101005.19;;;6.76;82.88
41712;BME280;27399;51.516;13.670;2022-11-14T02:47:08;100996.50;;;6.86;82.46
41712;BME280;27399;51.516;13.670;2022-11-14T02:49:33;100989.44;;;6.88;82.17
41712;BME280;27399;51.516;13.670;2022-11-14T02:51:59;100982.25;;;6.81;82.00
41712;BME280;27399;51.516;13.670;2022-11-14T02:54:24;100983.31;;;6.92;82.32
41712;BME280;27399;51.516;13.670;2022-11-14T02:56:50;100980.63;;;6.89;81.67
41712;BME280;27399;51.516;13.670;2022-11-14T02:59:15;100984.13;;;6.88;81.66
41712;BME280;27399;51.516;13.670;2022-11-14T03:01:41;100979.66;;;6.84;81.78
41712;BME280;27399;51.516;13.670;2022-11-14T03:04:07;100981.25;;;6.73;82.18
41712;BME280;27399;51.516;13.670;2022-11-14T03:06:32;100983.25;;;6.88;81.71
41712;BME280;27399;51.516;13.670;2022-11-14T03:08:58;100980.34;;;6.71;81.52
41712;BME280;27399;51.516;13.670;2022-11-14T03:11:24;100981.97;;;6.62;82.31
41712;BME280;27399;51.516;13.670;2022-11-14T03:13:50;100969.13;;;6.89;81.76
41712;BME280;27399;51.516;13.670;2022-11-14T03:16:15;100971.66;;;6.81;82.22
41712;BME280;27399;51.516;13.670;2022-11-14T03:18:41;100974.25;;;6.76;82.07
41712;BME280;27399;51.516;13.670;2022-11-14T03:21:10;100964.44;;;6.71;82.26
41712;BME280;27399;51.516;13.670;2022-11-14T03:23:36;100964.81;;;6.40;83.38
41712;BME280;27399;51.516;13.670;2022-11-14T03:26:03;100964.44;;;6.72;83.82
41712;BME280;27399;51.516;13.670;2022-11-14T03:28:29;100959.19;;;6.74;83.70
41712;BME280;27399;51.516;13.670;2022-11-14T03:30:54;100966.34;;;6.81;84.91
41712;BME280;27399;51.516;13.670;2022-11-14T03:33:20;100967.47;;;6.95;85.00
41712;BME280;27399;51.516;13.670;2022-11-14T03:35:49;100950.69;;;6.96;85.10
41712;BME280;27399;51.516;13.670;2022-11-14T03:38:16;100968.22;;;6.88;84.74
41712;BME280;27399;51.516;13.670;2022-11-14T03:40:42;100967.28;;;6.81;84.41
41712;BME280;27399;51.516;13.670;2022-11-14T03:43:08;100967.94;;;6.68;83.62
41712;BME280;27399;51.516;13.670;2022-11-14T03:45:36;100961.16;;;6.87;83.37
41712;BME280;27399;51.516;13.670;2022-11-14T03:48:02;100948.25;;;7.12;82.77
41712;BME280;27399;51.516;13.670;2022-11-14T03:50:27;100955.63;;;6.72;84.08
41712;BME280;27399;51.516;13.670;2022-11-14T03:52:53;100950.25;;;6.69;84.74
41712;BME280;27399;51.516;13.670;2022-11-14T03:55:19;100950.97;;;6.58;85.62
41712;BME280;27399;51.516;13.670;2022-11-14T03:57:44;100949.72;;;6.90;83.80
41712;BME280;27399;51.516;13.670;2022-11-14T04:00:10;100953.75;;;6.67;84.98
41712;BME280;27399;51.516;13.670;2022-11-14T04:02:36;100956.94;;;7.02;83.69
41712;BME280;27399;51.516;13.670;2022-11-14T04:05:02;100948.97;;;7.00;83.43
41712;BME280;27399;51.516;13.670;2022-11-14T04:07:27;100952.38;;;6.91;83.34
41712;BME280;27399;51.516;13.670;2022-11-14T04:09:53;100957.13;;;6.57;84.57
41712;BME280;27399;51.516;13.670;2022-11-14T04:12:19;100961.06;;;6.81;83.21
41712;BME280;27399;51.516;13.670;2022-11-14T04:14:44;100952.69;;;7.11;82.77
41712;BME280;27399;51.516;13.670;2022-11-14T04:17:10;100948.91;;;6.95;84.23
41712;BME280;27399;51.516;13.670;2022-11-14T04:19:36;100954.91;;;6.83;83.20
41712;BME280;27399;51.516;13.670;2022-11-14T04:22:02;100958.22;;;6.69;82.75
41712;BME280;27399;51.516;13.670;2022-11-14T04:24:27;100949.56;;;6.80;82.58
41712;BME280;27399;51.516;13.670;2022-11-14T04:26:53;100948.66;;;6.80;82.20
41712;BME280;27399;51.516;13.670;2022-11-14T04:29:19;100950.09;;;6.59;82.79
41712;BME280;27399;51.516;13.670;2022-11-14T04:31:44;100898.53;;;6.39;82.56
41712;BME280;27399;51.516;13.670;2022-11-14T04:34:10;100943.06;;;6.61;82.33
41712;BME280;27399;51.516;13.670;2022-11-14T04:36:35;100933.19;;;6.49;82.90
41712;BME280;27399;51.516;13.670;2022-11-14T04:39:01;100933.28;;;6.57;81.82
41712;BME280;27399;51.516;13.670;2022-11-14T04:41:27;100928.91;;;6.58;82.01
41712;BME280;27399;51.516;13.670;2022-11-14T04:43:52;100919.31;;;6.67;82.13
41712;BME280;27399;51.516;13.670;2022-11-14T04:46:18;100922.69;;;6.57;82.31
41712;BME280;27399;51.516;13.670;2022-11-14T04:48:43;100923.66;;;6.61;82.90
41712;BME280;27399;51.516;13.670;2022-11-14T04:51:09;100908.75;;;6.71;82.99
41712;BME280;27399;51.516;13.670;2022-11-14T04:53:34;100920.81;;;6.51;82.97
41712;BME280;27399;51.516;13.670;2022-11-14T04:56:00;100924.44;;;6.57;82.51
41712;BME280;27399;51.516;13.670;2022-11-14T04:58:26;100913.00;;;6.59;82.66
41712;BME280;27399;51.516;13.670;2022-11-14T05:00:51;100902.31;;;6.55;82.91
41712;BME280;27399;51.516;13.670;2022-11-14T05:03:17;100900.63;;;6.58;82.92
41712;BME280;27399;51.516;13.670;2022-11-14T05:05:43;100895.56;;;6.75;82.60
41712;BME280;27399;51.516;13.670;2022-11-14T05:08:08;100898.69;;;6.48;83.40
41712;BME280;27399;51.516;13.670;2022-11-14T05:10:34;100891.00;;;6.63;83.33
41712;BME280;27399;51.516;13.670;2022-11-14T05:13:00;100889.84;;;6.47;83.99
41712;BME280;27399;51.516;13.670;2022-11-14T05:15:26;100879.41;;;6.57;82.95
41712;BME280;27399;51.516;13.670;2022-11-14T05:17:51;100892.38;;;6.38;83.27
41712;BME280;27399;51.516;13.670;2022-11-14T05:20:17;100880.38;;;6.63;82.69
41712;BME280;27399;51.516;13.670;2022-11-14T05:22:43;100881.13;;;6.53;82.60
41712;BME280;27399;51.516;13.670;2022-11-14T05:25:09;100866.88;;;6.48;81.87
41712;BME280;27399;51.516;13.670;2022-11-14T05:27:34;100878.97;;;6.29;82.63
41712;BME280;27399;51.516;13.670;2022-11-14T05:30:00;100873.69;;;6.29;82.45
41712;BME280;27399;51.516;13.670;2022-11-14T05:32:26;100863.88;;;6.23;82.37
41712;BME280;27399;51.516;13.670;2022-11-14T05:34:51;100875.25;;;6.17;82.85
41712;BME280;27399;51.516;13.670;2022-11-14T05:37:17;100880.66;;;6.25;82.80
41712;BME280;27399;51.516;13.670;2022-11-14T05:39:42;100882.56;;;6.32;82.65
41712;BME280;27399;51.516;13.670;2022-11-14T05:42:08;100881.72;;;6.35;82.99
41712;BME280;27399;51.516;13.670;2022-11-14T05:44:33;100863.00;;;6.24;82.67
41712;BME280;27399;51.516;13.670;2022-11-14T05:46:59;100876.47;;;6.38;82.40
41712;BME280;27399;51.516;13.670;2022-11-14T05:49:25;100873.91;;;6.46;81.90
41712;BME280;27399;51.516;13.670;2022-11-14T05:51:50;100881.78;;;6.38;82.85
41712;BME280;27399;51.516;13.670;2022-11-14T05:54:16;100877.13;;;6.26;83.13
41712;BME280;27399;51.516;13.670;2022-11-14T05:56:41;100888.66;;;6.27;83.29
41712;BME280;27399;51.516;13.670;2022-11-14T05:59:07;100893.25;;;6.39;83.52
41712;BME280;27399;51.516;13.670;2022-11-14T06:01:32;100888.81;;;6.38;83.32
41712;BME280;27399;51.516;13.670;2022-11-14T06:03:58;100898.69;;;6.46;82.72
41712;BME280;27399;51.516;13.670;2022-11-14T06:06:24;100898.75;;;6.53;82.34
41712;BME280;27399;51.516;13.670;2022-11-14T06:08:49;100889.66;;;6.36;82.57
41712;BME280;27399;51.516;13.670;2022-11-14T06:11:17;100903.06;;;6.46;82.38
41712;BME280;27399;51.516;13.670;2022-11-14T06:13:44;100902.75;;;6.24;82.59
41712;BME280;27399;51.516;13.670;2022-11-14T06:16:12;100907.41;;;6.41;82.26
41712;BME280;27399;51.516;13.670;2022-11-14T06:18:39;100913.00;;;6.58;81.03
41712;BME280;27399;51.516;13.670;2022-11-14T06:21:15;100909.41;;;6.54;81.46
41712;BME280;27399;51.516;13.670;2022-11-14T06:23:42;100912.81;;;6.47;81.76
41712;BME280;27399;51.516;13.670;2022-11-14T06:26:25;100911.63;;;6.28;82.50
41712;BME280;27399;51.516;13.670;2022-11-14T06:28:52;100918.56;;;6.21;83.11
41712;BME280;27399;51.516;13.670;2022-11-14T06:31:19;100919.66;;;6.32;82.42
41712;BME280;27399;51.516;13.670;2022-11-14T06:33:45;100908.84;;;6.20;82.17
41712;BME280;27399;51.516;13.670;2022-11-14T06:36:11;100926.38;;;6.15;82.61
41712;BME280;27399;51.516;13.670;2022-11-14T06:38:38;100930.88;;;6.19;82.99
41712;BME280;27399;51.516;13.670;2022-11-14T06:41:08;100910.50;;;6.15;83.56
41712;BME280;27399;51.516;13.670;2022-11-14T06:43:36;100924.88;;;6.29;83.39
41712;BME280;27399;51.516;13.670;2022-11-14T06:46:03;100933.53;;;6.19;83.15
41712;BME280;27399;51.516;13.670;2022-11-14T06:48:29;100919.13;;;6.03;83.63
41712;BME280;27399;51.516;13.670;2022-11-14T06:50:56;100929.72;;;6.01;83.84
41712;BME280;27399;51.516;13.670;2022-11-14T06:53:23;100922.78;;;6.10;83.00
41712;BME280;27399;51.516;13.670;2022-11-14T06:55:56;100945.91;;;6.20;82.97
41712;BME280;27399;51.516;13.670;2022-11-14T06:58:34;100944.97;;;6.16;83.40
41712;BME280;27399;51.516;13.670;2022-11-14T07:01:20;100944.06;;;6.16;83.91
41712;BME280;27399;51.516;13.670;2022-11-14T07:03:46;100939.75;;;6.21;84.25
41712;BME280;27399;51.516;13.670;2022-11-14T07:06:18;100931.91;;;6.26;83.81
41712;BME280;27399;51.516;13.670;2022-11-14T07:08:44;100927.69;;;6.37;82.75
41712;BME280;27399;51.516;13.670;2022-11-14T07:11:15;100923.47;;;6.51;82.50
41712;BME280;27399;51.516;13.670;2022-11-14T07:13:51;100924.03;;;6.32;83.68
41712;BME280;27399;51.516;13.670;2022-11-14T07:16:18;100914.66;;;6.51;83.63
41712;BME280;27399;51.516;13.670;2022-11-14T07:18:44;100915.16;;;6.28;83.55
41712;BME280;27399;51.516;13.670;2022-11-14T07:21:10;100927.13;;;6.58;83.97
41712;BME280;27399;51.516;13.670;2022-11-14T07:23:38;100927.16;;;6.60;84.36
41712;BME280;27399;51.516;13.670;2022-11-14T07:26:06;100927.59;;;6.32;85.09
41712;BME280;27399;51.516;13.670;2022-11-14T07:28:37;100923.53;;;6.53;84.60
41712;BME280;27399;51.516;13.670;2022-11-14T07:31:05;100924.31;;;6.47;84.62
41712;BME280;27399;51.516;13.670;2022-11-14T07:33:31;100925.50;;;6.66;84.19
41712;BME280;27399;51.516;13.670;2022-11-14T07:35:57;100916.50;;;6.58;84.33
41712;BME280;27399;51.516;13.670;2022-11-14T07:38:22;100922.09;;;6.22;86.32
41712;BME280;27399;51.516;13.670;2022-11-14T07:40:55;100923.38;;;6.44;86.38
41712;BME280;27399;51.516;13.670;2022-11-14T07:43:21;100919.28;;;6.64;86.48
41712;BME280;27399;51.516;13.670;2022-11-14T07:45:46;100916.84;;;6.80;85.73
41712;BME280;27399;51.516;13.670;2022-11-14T07:48:12;100914.59;;;6.48;87.34
41712;BME280;27399;51.516;13.670;2022-11-14T07:50:37;100917.38;;;6.57;87.59
41712;BME280;27399;51.516;13.670;2022-11-14T07:53:03;100906.09;;;6.71;86.89
41712;BME280;27399;51.516;13.670;2022-11-14T07:55:29;100905.50;;;6.89;86.42
41712;BME280;27399;51.516;13.670;2022-11-14T07:57:54;100903.94;;;7.03;86.60
41712;BME280;27399;51.516;13.670;2022-11-14T08:00:23;100909.50;;;7.23;87.37
41712;BME280;27399;51.516;13.670;2022-11-14T08:02:48;100905.69;;;7.04;88.03
41712;BME280;27399;51.516;13.670;2022-11-14T08:05:14;100898.94;;;7.28;87.65
41712;BME280;27399;51.516;13.670;2022-11-14T08:07:40;100896.19;;;7.20;87.95
41712;BME280;27399;51.516;13.670;2022-11-14T08:10:06;100899.09;;;7.42;87.59
41712;BME280;27399;51.516;13.670;2022-11-14T08:12:32;100891.03;;;7.33;87.71
41712;BME280;27399;51.516;13.670;2022-11-14T08:14:57;100885.97;;;7.53;88.41
41712;BME280;27399;51.516;13.670;2022-11-14T08:17:23;100894.19;;;7.74;88.53
41712;BME280;27399;51.516;13.670;2022-11-14T08:19:49;100888.69;;;7.56;89.10
41712;BME280;27399;51.516;13.670;2022-11-14T08:22:14;100888.81;;;7.71;88.96
41712;BME280;27399;51.516;13.670;2022-11-14T08:24:40;100879.13;;;7.75;89.36
41712;BME280;27399;51.516;13.670;2022-11-14T08:27:05;100882.94;;;8.05;88.26
41712;BME280;27399;51.516;13.670;2022-11-14T08:29:31;100877.72;;;8.11;88.17
41712;BME280;27399;51.516;13.670;2022-11-14T08:31:57;100877.78;;;8.20;88.18
41712;BME280;27399;51.516;13.670;2022-11-14T08:34:24;100877.88;;;8.30;88.09
41712;BME280;27399;51.516;13.670;2022-11-14T08:36:50;100870.00;;;8.44;88.16
41712;BME280;27399;51.516;13.670;2022-11-14T08:39:15;100860.38;;;8.53;87.38
41712;BME280;27399;51.516;13.670;2022-11-14T08:41:41;100862.03;;;8.44;87.72
41712;BME280;27399;51.516;13.670;2022-11-14T08:44:06;100871.06;;;8.63;87.53
41712;BME280;27399;51.516;13.670;2022-11-14T08:46:32;100866.69;;;8.74;87.98
41712;BME280;27399;51.516;13.670;2022-11-14T08:48:58;100864.94;;;8.79;87.40
41712;BME280;27399;51.516;13.670;2022-11-14T08:51:23;100869.50;;;9.02;87.50
41712;BME280;27399;51.516;13.670;2022-11-14T08:53:49;100864.19;;;9.02;87.31
41712;BME280;27399;51.516;13.670;2022-11-14T08:56:16;100850.97;;;9.18;88.05
41712;BME280;27399;51.516;13.670;2022-11-14T08:58:42;100861.66;;;9.30;87.84
41712;BME280;27399;51.516;13.670;2022-11-14T09:01:08;100859.00;;;9.36;87.71
41712;BME280;27399;51.516;13.670;2022-11-14T09:03:34;100853.66;;;9.28;86.85
41712;BME280;27399;51.516;13.670;2022-11-14T09:06:00;100846.69;;;9.72;85.48
41712;BME280;27399;51.516;13.670;2022-11-14T09:08:27;100846.69;;;9.79;86.50
41712;BME280;27399;51.516;13.670;2022-11-14T09:10:53;100853.78;;;9.86;84.38
41712;BME280;27399;51.516;13.670;2022-11-14T09:13:19;100851.16;;;10.20;84.15
41712;BME280;27399;51.516;13.670;2022-11-14T09:15:45;100831.63;;;10.15;84.58
41712;BME280;27399;51.516;13.670;2022-11-14T09:18:11;100837.84;;;10.46;84.22
41712;BME280;27399;51.516;13.670;2022-11-14T09:20:37;100834.25;;;10.64;83.74
41712;BME280;27399;51.516;13.670;2022-11-14T09:23:03;100820.06;;;10.56;83.22
41712;BME280;27399;51.516;13.670;2022-11-14T09:25:29;100819.13;;;10.63;83.90
41712;BME280;27399;51.516;13.670;2022-11-14T09:27:55;100827.06;;;10.94;83.11
41712;BME280;27399;51.516;13.670;2022-11-14T09:30:21;100838.56;;;11.10;80.78
41712;BME280;27399;51.516;13.670;2022-11-14T09:32:47;100834.94;;;11.21;80.71
41712;BME280;27399;51.516;13.670;2022-11-14T09:35:13;100841.19;;;11.21;81.63
41712;BME280;27399;51.516;13.670;2022-11-14T09:37:39;100832.28;;;11.21;82.74
41712;BME280;27399;51.516;13.670;2022-11-14T09:40:05;100838.41;;;11.41;81.57
41712;BME280;27399;51.516;13.670;2022-11-14T09:45:16;100830.97;;;11.94;78.49
41712;BME280;27399;51.516;13.670;2022-11-14T09:48:08;100846.84;;;12.15;78.28
41712;BME280;27399;51.516;13.670;2022-11-14T09:50:41;100842.38;;;12.20;78.49
41712;BME280;27399;51.516;13.670;2022-11-14T09:53:35;100835.00;;;12.45;78.24
41712;BME280;27399;51.516;13.670;2022-11-14T09:56:04;100836.91;;;12.34;77.79
41712;BME280;27399;51.516;13.670;2022-11-14T09:58:32;100827.97;;;12.38;76.65
41712;BME280;27399;51.516;13.670;2022-11-14T10:01:26;100830.66;;;12.32;77.67
41712;BME280;27399;51.516;13.670;2022-11-14T10:04:03;100825.16;;;12.52;76.80
41712;BME280;27399;51.516;13.670;2022-11-14T10:10:24;100806.56;;;12.38;78.25
41712;BME280;27399;51.516;13.670;2022-11-14T10:22:42;100799.22;;;12.59;78.43
41712;BME280;27399;51.516;13.670;2022-11-14T10:30:21;100795.31;;;12.86;77.52
41712;BME280;27399;51.516;13.670;2022-11-14T10:35:34;100799.63;;;13.01;76.34
41712;BME280;27399;51.516;13.670;2022-11-14T10:48:32;100803.59;;;13.36;74.02
41712;BME280;27399;51.516;13.670;2022-11-14T10:53:57;100784.78;;;13.44;72.80
41712;BME280;27399;51.516;13.670;2022-11-14T10:56:25;100787.28;;;13.56;72.99
41712;BME280;27399;51.516;13.670;2022-11-14T10:58:50;100796.44;;;13.41;72.95
41712;BME280;27399;51.516;13.670;2022-11-14T11:01:39;100789.16;;;13.50;72.37
41712;BME280;27399;51.516;13.670;2022-11-14T11:06:38;100781.19;;;14.01;71.71
41712;BME280;27399;51.516;13.670;2022-11-14T11:09:34;100787.50;;;13.99;70.98
41712;BME280;27399;51.516;13.670;2022-11-14T11:15:17;100785.84;;;13.90;70.80
41712;BME280;27399;51.516;13.670;2022-11-14T11:18:03;100780.34;;;13.99;70.67
41712;BME280;27399;51.516;13.670;2022-11-14T11:20:30;100773.00;;;14.10;70.50
41712;BME280;27399;51.516;13.670;2022-11-14T11:23:03;100775.41;;;14.26;70.90
41712;BME280;27399;51.516;13.670;2022-11-14T11:25:31;100769.69;;;13.96;70.80
41712;BME280;27399;51.516;13.670;2022-11-14T11:28:20;100771.75;;;14.30;70.59
41712;BME280;27399;51.516;13.670;2022-11-14T11:30:57;100768.44;;;14.16;69.65
41712;BME280;27399;51.516;13.670;2022-11-14T11:33:25;100759.59;;;14.57;69.62
41712;BME280;27399;51.516;13.670;2022-11-14T11:35:58;100753.81;;;14.32;69.39
41712;BME280;27399;51.516;13.670;2022-11-14T11:38:29;100753.34;;;14.57;69.58
41712;BME280;27399;51.516;13.670;2022-11-14T11:43:44;100761.31;;;14.62;69.06
41712;BME280;27399;51.516;13.670;2022-11-14T11:46:43;100757.56;;;14.72;68.69
41712;BME280;27399;51.516;13.670;2022-11-14T11:49:16;100758.91;;;14.48;68.53
41712;BME280;27399;51.516;13.670;2022-11-14T11:51:44;100756.56;;;14.78;68.35
41712;BME280;27399;51.516;13.670;2022-11-14T11:54:16;100762.41;;;14.51;68.24
41712;BME280;27399;51.516;13.670;2022-11-14T11:56:46;100756.75;;;14.67;67.70
41712;BME280;27399;51.516;13.670;2022-11-14T11:59:18;100753.41;;;14.54;68.20
41712;BME280;27399;51.516;13.670;2022-11-14T12:01:46;100751.78;;;14.47;68.96
41712;BME280;27399;51.516;13.670;2022-11-14T12:04:12;100757.22;;;14.89;68.35
41712;BME280;27399;51.516;13.670;2022-11-14T12:06:49;100745.63;;;14.87;68.25
41712;BME280;27399;51.516;13.670;2022-11-14T12:16:13;100743.38;;;15.08;67.78
41712;BME280;27399;51.516;13.670;2022-11-14T12:19:05;100750.78;;;15.37;66.80
41712;BME280;27399;51.516;13.670;2022-11-14T12:21:53;100734.25;;;15.15;66.80
41712;BME280;27399;51.516;13.670;2022-11-14T12:24:36;100732.44;;;15.17;67.22
41712;BME280;27399;51.516;13.670;2022-11-14T12:27:18;100724.09;;;15.29;68.31
41712;BME280;27399;51.516;13.670;2022-11-14T12:30:02;100726.16;;;15.56;67.21
41712;BME280;27399;51.516;13.670;2022-11-14T12:32:32;100732.53;;;15.52;66.77
41712;BME280;27399;51.516;13.670;2022-11-14T12:35:06;100742.56;;;15.45;67.83
41712;BME280;27399;51.516;13.670;2022-11-14T12:37:37;100733.56;;;15.46;67.67
41712;BME280;27399;51.516;13.670;2022-11-14T12:40:20;100738.22;;;15.38;67.04
41712;BME280;27399;51.516;13.670;2022-11-14T12:42:47;100730.97;;;15.41;67.09
41712;BME280;27399;51.516;13.670;2022-11-14T12:50:52;100721.47;;;15.64;66.95
41712;BME280;27399;51.516;13.670;2022-11-14T12:53:37;100728.56;;;15.67;66.24
41712;BME280;27399;51.516;13.670;2022-11-14T13:10:28;100719.78;;;15.22;66.63
41712;BME280;27399;51.516;13.670;2022-11-14T13:13:07;100717.94;;;15.24;67.01
41712;BME280;27399;51.516;13.670;2022-11-14T13:15:55;100725.59;;;15.43;66.59
41712;BME280;27399;51.516;13.670;2022-11-14T13:18:54;100703.16;;;15.44;66.51
41712;BME280;27399;51.516;13.670;2022-11-14T13:27:34;100702.31;;;15.40;67.04
41712;BME280;27399;51.516;13.670;2022-11-14T13:30:02;100696.94;;;15.40;66.95
41712;BME280;27399;51.516;13.670;2022-11-14T13:37:56;100698.59;;;15.10;67.15
41712;BME280;27399;51.516;13.670;2022-11-14T13:40:32;100701.81;;;15.24;67.12
41712;BME280;27399;51.516;13.670;2022-11-14T13:46:00;100694.69;;;15.23;66.71
41712;BME280;27399;51.516;13.670;2022-11-14T13:51:28;100690.53;;;15.46;66.69
41712;BME280;27399;51.516;13.670;2022-11-14T13:53:53;100693.13;;;15.50;66.68
41712;BME280;27399;51.516;13.670;2022-11-14T13:56:43;100679.78;;;15.47;66.59
41712;BME280;27399;51.516;13.670;2022-11-14T14:05:12;100676.78;;;15.60;66.40
41712;BME280;27399;51.516;13.670;2022-11-14T14:10:42;100664.63;;;15.45;66.35
41712;BME280;27399;51.516;13.670;2022-11-14T14:16:31;100660.38;;;15.34;66.63
41712;BME280;27399;51.516;13.670;2022-11-14T14:22:00;100661.31;;;15.33;67.14
41712;BME280;27399;51.516;13.670;2022-11-14T14:24:47;100653.25;;;15.33;66.74
41712;BME280;27399;51.516;13.670;2022-11-14T14:30:15;100662.53;;;15.20;66.91
41712;BME280;27399;51.516;13.670;2022-11-14T14:32:41;100677.16;;;15.07;67.70
41712;BME280;27399;51.516;13.670;2022-11-14T14:35:28;100675.06;;;14.80;68.40
41712;BME280;27399;51.516;13.670;2022-11-14T14:37:55;100677.19;;;14.63;69.83
41712;BME280;27399;51.516;13.670;2022-11-14T14:40:24;100677.06;;;14.25;70.61
41712;BME280;27399;51.516;13.670;2022-11-14T14:42:51;100672.69;;;14.19;71.39
41712;BME280;27399;51.516;13.670;2022-11-14T14:45:19;100669.38;;;14.05;71.98
41712;BME280;27399;51.516;13.670;2022-11-14T14:48:00;100664.16;;;13.97;72.37